createdAt,value
2018-08-16T00:00:56.692Z,13.07
2018-08-16T00:03:24.986Z,8.17
2018-08-16T00:05:53.278Z,8.57
2018-08-16T00:08:21.577Z,8.30
2018-08-16T00:10:49.983Z,7.67
2018-08-16T00:13:18.401Z,8.03
2018-08-16T00:15:46.715Z,7.73
2018-08-16T00:18:15.033Z,8.13
2018-08-16T00:20:43.348Z,7.73
2018-08-16T00:23:11.639Z,9.03
2018-08-16T00:25:39.914Z,8.53
2018-08-16T00:28:08.209Z,8.87
2018-08-16T00:30:36.498Z,7.67
2018-08-16T00:33:04.846Z,8.80
2018-08-16T00:35:33.223Z,7.50
2018-08-16T00:38:01.554Z,9.70
2018-08-16T00:40:29.876Z,7.50
2018-08-16T00:42:58.165Z,8.10
2018-08-16T00:45:26.542Z,10.53
2018-08-16T00:47:54.860Z,8.07
2018-08-16T00:50:23.164Z,9.93
2018-08-16T00:52:51.457Z,8.90
2018-08-16T00:55:19.739Z,8.03
2018-08-16T00:57:48.061Z,7.73
2018-08-16T01:00:17.213Z,7.87
2018-08-16T01:02:45.983Z,7.30
2018-08-16T01:05:14.485Z,8.50
2018-08-16T01:07:42.838Z,9.87
2018-08-16T01:10:12.688Z,8.17
2018-08-16T01:12:41.656Z,8.13
2018-08-16T01:15:12.401Z,9.07
2018-08-16T01:17:40.976Z,8.40
2018-08-16T01:20:09.517Z,7.90
2018-08-16T01:22:37.769Z,8.57
2018-08-16T01:25:06.938Z,8.73
2018-08-16T01:27:35.619Z,8.50
2018-08-16T01:30:04.539Z,9.53
2018-08-16T01:32:32.818Z,10.77
2018-08-16T01:35:01.091Z,10.30
2018-08-16T01:37:29.404Z,9.63
2018-08-16T01:39:57.711Z,11.00
2018-08-16T01:42:26.015Z,9.93
2018-08-16T01:44:54.311Z,10.23
2018-08-16T01:47:22.589Z,10.47
2018-08-16T01:49:51.548Z,12.03
2018-08-16T01:52:19.801Z,10.37
2018-08-16T01:54:48.061Z,10.13
2018-08-16T01:57:16.356Z,9.83
2018-08-16T01:59:44.625Z,10.50
2018-08-16T02:02:12.916Z,10.10
2018-08-16T02:04:41.190Z,10.60
2018-08-16T02:07:09.477Z,9.87
2018-08-16T02:09:37.742Z,12.87
2018-08-16T02:12:06.676Z,9.97
2018-08-16T02:14:34.930Z,9.13
2018-08-16T02:17:03.242Z,10.37
2018-08-16T02:19:31.534Z,12.27
2018-08-16T02:21:59.842Z,11.40
2018-08-16T02:24:28.109Z,9.83
2018-08-16T02:26:56.418Z,10.60
2018-08-16T02:29:24.721Z,11.37
2018-08-16T02:31:53.041Z,9.30
2018-08-16T02:34:21.295Z,9.37
2018-08-16T02:36:49.563Z,9.77
2018-08-16T02:39:17.884Z,9.33
2018-08-16T02:41:46.203Z,9.60
2018-08-16T02:44:14.498Z,10.07
2018-08-16T02:46:42.817Z,8.93
2018-08-16T02:49:11.094Z,11.37
2018-08-16T02:51:39.362Z,9.57
2018-08-16T02:54:07.624Z,9.70
2018-08-16T02:56:35.954Z,12.23
2018-08-16T02:59:04.270Z,10.33
2018-08-16T03:01:32.539Z,11.47
2018-08-16T03:04:00.899Z,10.03
2018-08-16T03:06:29.162Z,9.83
2018-08-16T03:08:57.445Z,10.60
2018-08-16T03:11:25.936Z,12.07
2018-08-16T03:13:54.185Z,10.00
2018-08-16T03:16:22.478Z,9.83
2018-08-16T03:18:50.839Z,10.47
2018-08-16T03:21:19.149Z,10.47
2018-08-16T03:23:47.389Z,9.57
2018-08-16T03:26:15.703Z,10.07
2018-08-16T03:28:43.957Z,11.53
2018-08-16T03:31:12.250Z,10.40
2018-08-16T03:33:40.548Z,10.57
2018-08-16T03:36:08.859Z,9.60
2018-08-16T03:38:37.141Z,10.83
2018-08-16T03:41:05.425Z,14.53
2018-08-16T03:43:33.682Z,9.97
2018-08-16T03:46:01.981Z,10.70
2018-08-16T03:48:30.822Z,13.53
2018-08-16T03:50:59.115Z,10.23
2018-08-16T03:53:27.401Z,10.80
2018-08-16T03:55:55.759Z,12.60
2018-08-16T03:58:24.062Z,13.63
2018-08-16T04:00:52.349Z,11.17
2018-08-16T04:03:20.633Z,12.93
2018-08-16T04:05:48.901Z,11.93
2018-08-16T04:08:17.178Z,11.50
2018-08-16T04:10:45.462Z,12.13
2018-08-16T04:13:13.745Z,11.40
2018-08-16T04:15:42.001Z,11.17
2018-08-16T04:18:10.301Z,11.63
2018-08-16T04:20:38.574Z,13.50
2018-08-16T04:23:06.893Z,11.33
2018-08-16T04:25:35.166Z,12.20
2018-08-16T04:28:03.678Z,12.13
2018-08-16T04:30:31.943Z,12.73
2018-08-16T04:33:00.230Z,15.00
2018-08-16T04:35:28.525Z,11.27
2018-08-16T04:37:56.790Z,10.83
2018-08-16T04:40:25.069Z,14.70
2018-08-16T04:42:53.445Z,10.93
2018-08-16T04:45:21.773Z,13.30
2018-08-16T04:47:50.078Z,10.87
2018-08-16T04:50:18.414Z,13.27
2018-08-16T04:52:46.797Z,11.67
2018-08-16T04:55:15.114Z,11.53
2018-08-16T04:57:43.426Z,12.37
2018-08-16T05:00:13.030Z,11.00
2018-08-16T05:02:41.366Z,11.63
2018-08-16T05:05:09.989Z,15.03
2018-08-16T05:07:38.512Z,11.53
2018-08-16T05:10:08.066Z,13.97
2018-08-16T05:12:36.369Z,13.53
2018-08-16T05:15:07.301Z,10.53
2018-08-16T05:17:35.781Z,13.37
2018-08-16T05:20:05.437Z,16.70
2018-08-16T05:22:33.732Z,11.63
2018-08-16T05:25:02.034Z,11.30
2018-08-16T05:27:30.329Z,10.90
2018-08-16T05:29:58.574Z,12.27
2018-08-16T05:32:26.910Z,11.90
2018-08-16T05:34:55.206Z,15.77
2018-08-16T05:37:23.564Z,12.47
2018-08-16T05:39:51.857Z,14.43
2018-08-16T05:42:20.191Z,12.07
2018-08-16T05:44:48.536Z,13.30
2018-08-16T05:47:16.821Z,13.10
2018-08-16T05:49:45.110Z,11.40
2018-08-16T05:52:13.409Z,11.77
2018-08-16T05:54:41.681Z,12.67
2018-08-16T05:57:10.035Z,16.90
2018-08-16T05:59:38.332Z,11.97
2018-08-16T06:02:07.178Z,12.57
2018-08-16T06:04:35.545Z,11.23
2018-08-16T06:07:04.084Z,11.83
2018-08-16T06:09:32.334Z,11.03
2018-08-16T06:12:00.584Z,12.33
2018-08-16T06:14:28.970Z,10.70
2018-08-16T06:16:57.279Z,11.37
2018-08-16T06:19:25.605Z,13.90
2018-08-16T06:21:53.925Z,14.67
2018-08-16T06:24:22.342Z,10.93
2018-08-16T06:26:50.621Z,12.10
2018-08-16T06:29:18.920Z,14.13
2018-08-16T06:31:47.257Z,15.57
2018-08-16T06:34:15.490Z,11.40
2018-08-16T06:36:43.786Z,10.83
2018-08-16T06:39:13.080Z,12.47
2018-08-16T06:41:41.814Z,13.03
2018-08-16T06:44:10.414Z,13.37
2018-08-16T06:46:38.778Z,13.40
2018-08-16T06:49:07.683Z,15.50
2018-08-16T06:51:36.016Z,9.70
2018-08-16T06:54:04.290Z,12.57
2018-08-16T06:56:32.577Z,12.20
2018-08-16T06:59:00.834Z,9.97
2018-08-16T07:01:29.107Z,11.27
2018-08-16T07:03:57.410Z,12.50
2018-08-16T07:06:25.677Z,9.60
2018-08-16T07:08:54.099Z,9.40
2018-08-16T07:11:22.478Z,11.33
2018-08-16T07:13:50.845Z,9.97
2018-08-16T07:16:19.253Z,10.23
2018-08-16T07:18:47.638Z,9.70
2018-08-16T07:21:16.002Z,10.20
2018-08-16T07:23:44.297Z,9.90
2018-08-16T07:26:12.587Z,9.77
2018-08-16T07:28:40.957Z,9.13
2018-08-16T07:31:09.213Z,9.30
2018-08-16T07:33:37.601Z,9.20
2018-08-16T07:36:05.901Z,14.07
2018-08-16T07:38:34.173Z,10.67
2018-08-16T07:41:02.457Z,8.60
2018-08-16T07:43:31.010Z,9.00
2018-08-16T07:45:59.345Z,9.83
2018-08-16T07:48:27.606Z,11.03
2018-08-16T07:50:55.893Z,8.50
2018-08-16T07:53:24.166Z,9.93
2018-08-16T07:55:52.418Z,9.23
2018-08-16T07:58:20.795Z,9.90
2018-08-16T08:00:49.041Z,9.47
2018-08-16T08:03:17.531Z,9.73
2018-08-16T08:05:45.786Z,10.80
2018-08-16T08:08:14.106Z,10.17
2018-08-16T08:10:42.363Z,9.63
2018-08-16T08:13:10.668Z,9.10
2018-08-16T08:15:39.094Z,9.53
2018-08-16T08:18:07.885Z,9.30
2018-08-16T08:20:36.192Z,9.30
2018-08-16T08:23:04.472Z,9.03
2018-08-16T08:25:32.880Z,8.37
2018-08-16T08:28:01.161Z,10.63
2018-08-16T08:30:29.413Z,9.00
2018-08-16T08:32:57.717Z,9.57
2018-08-16T08:35:26.026Z,8.63
2018-08-16T08:38:18.010Z,11.00
2018-08-16T08:40:46.262Z,10.83
2018-08-16T08:43:24.328Z,10.87
2018-08-16T08:45:52.614Z,8.73
2018-08-16T08:48:20.943Z,10.50
2018-08-16T08:50:49.222Z,8.83
2018-08-16T08:53:28.945Z,7.87
2018-08-16T08:56:08.551Z,6.97
2018-08-16T08:58:48.015Z,7.50
2018-08-16T09:01:16.316Z,7.37
2018-08-16T09:03:44.622Z,8.00
2018-08-16T09:06:12.928Z,5.70
2018-08-16T09:08:41.207Z,11.07
2018-08-16T09:11:21.512Z,7.80
2018-08-16T09:14:05.680Z,6.30
2018-08-16T09:16:35.158Z,7.40
2018-08-16T09:19:03.962Z,6.57
2018-08-16T09:21:32.638Z,7.07
2018-08-16T09:24:00.968Z,6.87
2018-08-16T09:26:34.770Z,7.67
2018-08-16T09:29:07.565Z,7.40
2018-08-16T09:31:47.179Z,5.23
2018-08-16T09:34:19.776Z,5.80
2018-08-16T09:36:48.106Z,4.62
2018-08-16T09:39:16.398Z,7.25
2018-08-16T09:41:44.701Z,5.10
2018-08-16T09:44:13.050Z,6.17
2018-08-16T09:47:00.441Z,9.40
2018-08-16T09:49:30.091Z,7.10
2018-08-16T09:51:58.378Z,7.00
2018-08-16T09:54:26.742Z,5.10
2018-08-16T09:56:56.147Z,5.17
2018-08-16T09:59:24.639Z,5.15
2018-08-16T10:01:52.966Z,4.37
2018-08-16T10:04:21.294Z,4.65
2018-08-16T10:06:49.739Z,6.20
2018-08-16T10:09:22.289Z,7.90
2018-08-16T10:11:50.749Z,6.60
2018-08-16T10:14:19.408Z,4.83
2018-08-16T10:16:47.950Z,7.95
2018-08-16T10:19:16.247Z,6.47
2018-08-16T10:21:44.573Z,7.55
2018-08-16T10:24:12.874Z,6.90
2018-08-16T10:26:41.153Z,9.53
2018-08-16T10:29:09.997Z,8.83
2018-08-16T10:31:38.370Z,4.87
2018-08-16T10:34:06.682Z,8.38
2018-08-16T10:36:34.995Z,6.17
2018-08-16T10:39:04.647Z,4.50
2018-08-16T10:41:32.928Z,10.50
2018-08-16T10:44:01.187Z,7.33
2018-08-16T10:46:29.489Z,3.83
2018-08-16T10:48:57.946Z,6.92
2018-08-16T10:51:26.208Z,5.12
2018-08-16T10:53:54.467Z,6.30
2018-08-16T10:56:22.835Z,5.73
2018-08-16T10:58:51.172Z,8.17
2018-08-16T11:01:19.502Z,4.40
2018-08-16T11:03:47.713Z,5.33
2018-08-16T11:06:16.130Z,6.30
2018-08-16T11:08:44.435Z,5.60
2018-08-16T11:11:12.804Z,4.40
2018-08-16T11:13:41.127Z,8.77
2018-08-16T11:16:09.389Z,5.73
2018-08-16T11:18:37.669Z,5.67
2018-08-16T11:21:06.101Z,6.73
2018-08-16T11:23:34.409Z,4.93
2018-08-16T11:26:02.694Z,5.13
2018-08-16T11:28:30.957Z,5.17
2018-08-16T11:30:59.264Z,4.67
2018-08-16T11:33:27.557Z,6.57
2018-08-16T11:35:55.861Z,5.43
2018-08-16T11:38:24.116Z,4.50
2018-08-16T11:40:52.441Z,4.20
2018-08-16T11:43:20.750Z,3.60
2018-08-16T11:45:49.070Z,8.40
2018-08-16T11:48:17.457Z,3.90
2018-08-16T11:50:45.718Z,3.90
2018-08-16T11:53:13.974Z,5.67
2018-08-16T11:55:42.221Z,7.20
2018-08-16T11:58:10.527Z,6.50
2018-08-16T12:00:38.812Z,6.60
2018-08-16T12:03:07.224Z,4.83
2018-08-16T12:05:35.486Z,7.30
2018-08-16T12:08:03.766Z,6.03
2018-08-16T12:10:32.141Z,4.40
2018-08-16T12:13:00.413Z,4.80
2018-08-16T12:15:28.695Z,4.63
2018-08-16T12:17:56.991Z,4.10
2018-08-16T12:20:25.384Z,5.27
2018-08-16T12:22:53.755Z,5.87
2018-08-16T12:25:22.099Z,6.37
2018-08-16T12:27:50.430Z,5.30
2018-08-16T12:30:18.770Z,4.17
2018-08-16T12:32:47.038Z,4.23
2018-08-16T12:35:15.293Z,4.57
2018-08-16T12:37:43.735Z,3.97
2018-08-16T12:40:11.992Z,4.70
2018-08-16T12:42:40.314Z,4.63
2018-08-16T12:45:08.598Z,5.23
2018-08-16T12:47:36.971Z,6.43
2018-08-16T12:50:06.050Z,5.17
2018-08-16T12:52:34.390Z,5.27
2018-08-16T12:55:02.653Z,7.27
2018-08-16T12:57:30.961Z,6.57
2018-08-16T12:59:59.281Z,7.20
2018-08-16T13:02:27.538Z,7.37
2018-08-16T13:04:55.789Z,5.93
2018-08-16T13:07:24.063Z,3.87
2018-08-16T13:09:52.306Z,8.27
2018-08-16T13:12:20.716Z,5.30
2018-08-16T13:14:49.044Z,4.80
2018-08-16T13:17:17.269Z,5.23
2018-08-16T13:19:45.543Z,6.17
2018-08-16T13:22:13.970Z,4.37
2018-08-16T13:24:42.242Z,4.20
2018-08-16T13:27:10.529Z,3.80
2018-08-16T13:29:38.808Z,3.40
2018-08-16T13:32:07.151Z,4.00
2018-08-16T13:34:35.434Z,4.13
2018-08-16T13:37:03.762Z,4.47
2018-08-16T13:39:31.976Z,4.50
2018-08-16T13:42:00.244Z,4.47
2018-08-16T13:44:28.582Z,7.03
2018-08-16T13:46:56.920Z,7.00
2018-08-16T13:49:25.222Z,5.93
2018-08-16T13:51:53.513Z,5.50
2018-08-16T13:54:21.778Z,3.87
2018-08-16T13:56:50.120Z,3.83
2018-08-16T13:59:18.426Z,7.10
2018-08-16T14:01:46.755Z,5.73
2018-08-16T14:04:14.961Z,6.67
2018-08-16T14:06:43.294Z,4.70
2018-08-16T14:09:12.532Z,4.10
2018-08-16T14:11:40.902Z,6.33
2018-08-16T14:14:09.167Z,4.37
2018-08-16T14:16:37.410Z,4.00
2018-08-16T14:19:06.110Z,7.07
2018-08-16T14:21:34.377Z,4.50
2018-08-16T14:24:02.761Z,4.53
2018-08-16T14:26:31.021Z,6.07
2018-08-16T14:28:59.299Z,4.43
2018-08-16T14:31:27.643Z,5.83
2018-08-16T14:33:56.038Z,4.87
2018-08-16T14:36:24.314Z,6.20
2018-08-16T14:38:52.746Z,5.40
2018-08-16T14:41:20.929Z,4.10
2018-08-16T14:43:49.210Z,3.50
2018-08-16T14:46:17.507Z,3.70
2018-08-16T14:48:45.766Z,4.63
2018-08-16T14:51:14.035Z,3.93
2018-08-16T14:53:42.354Z,6.17
2018-08-16T14:56:10.726Z,5.07
2018-08-16T14:58:39.022Z,7.57
2018-08-16T15:01:07.295Z,4.93
2018-08-16T15:03:35.641Z,3.40
2018-08-16T15:06:03.905Z,4.17
2018-08-16T15:08:32.166Z,3.97
2018-08-16T15:11:00.442Z,4.37
2018-08-16T15:13:28.717Z,3.57
2018-08-16T15:15:56.994Z,3.90
2018-08-16T15:18:25.257Z,5.07
2018-08-16T15:20:53.531Z,3.40
2018-08-16T15:23:21.801Z,4.30
2018-08-16T15:25:50.062Z,4.43
2018-08-16T15:28:19.361Z,4.70
2018-08-16T15:30:47.706Z,3.27
2018-08-16T15:33:16.005Z,5.77
2018-08-16T15:35:44.394Z,4.87
2018-08-16T15:38:12.663Z,4.10
2018-08-16T15:40:40.918Z,4.57
2018-08-16T15:43:09.183Z,5.37
2018-08-16T15:45:37.442Z,5.03
2018-08-16T15:48:10.203Z,6.33
2018-08-16T15:50:38.438Z,6.03
2018-08-16T15:53:07.251Z,4.43
2018-08-16T15:55:35.739Z,6.70
2018-08-16T15:58:04.065Z,5.60
2018-08-16T16:00:32.342Z,3.50
2018-08-16T16:03:00.646Z,3.63
2018-08-16T16:05:28.973Z,3.90
2018-08-16T16:07:57.330Z,4.63
2018-08-16T16:10:26.006Z,5.40
2018-08-16T16:12:54.278Z,6.80
2018-08-16T16:15:22.525Z,5.60
2018-08-16T16:17:50.815Z,7.80
2018-08-16T16:20:19.106Z,4.60
2018-08-16T16:22:47.345Z,4.90
2018-08-16T16:25:15.626Z,6.23
2018-08-16T16:27:43.894Z,7.60
2018-08-16T16:30:12.217Z,6.30
2018-08-16T16:32:40.493Z,4.40
2018-08-16T16:35:09.029Z,7.47
2018-08-16T16:37:37.273Z,4.47
2018-08-16T16:40:06.374Z,4.90
2018-08-16T16:42:34.617Z,5.53
2018-08-16T16:45:03.070Z,6.40
2018-08-16T16:47:31.218Z,5.27
2018-08-16T16:49:59.505Z,5.47
2018-08-16T16:52:27.792Z,4.03
2018-08-16T16:54:56.247Z,4.53
2018-08-16T16:57:24.513Z,4.10
2018-08-16T16:59:52.787Z,3.57
2018-08-16T17:02:21.081Z,6.47
2018-08-16T17:04:49.358Z,4.23
2018-08-16T17:07:17.615Z,3.57
2018-08-16T17:09:45.881Z,4.97
2018-08-16T17:12:14.191Z,4.23
2018-08-16T17:14:42.565Z,5.50
2018-08-16T17:17:11.032Z,4.27
2018-08-16T17:19:39.289Z,6.67
2018-08-16T17:22:08.048Z,5.67
2018-08-16T17:24:36.492Z,4.23
2018-08-16T17:27:04.742Z,3.80
2018-08-16T17:29:33.006Z,4.13
2018-08-16T17:32:01.334Z,4.63
2018-08-16T17:34:29.567Z,7.03
2018-08-16T17:36:57.822Z,4.27
2018-08-16T17:39:26.094Z,3.83
2018-08-16T17:41:54.350Z,8.07
2018-08-16T17:44:22.711Z,3.40
2018-08-16T17:46:50.965Z,4.27
2018-08-16T17:49:19.293Z,3.40
2018-08-16T17:51:47.547Z,5.80
2018-08-16T17:54:15.809Z,4.97
2018-08-16T17:56:44.052Z,6.90
2018-08-16T17:59:12.337Z,5.50
2018-08-16T18:01:40.599Z,7.00
2018-08-16T18:04:08.881Z,3.60
2018-08-16T18:06:37.127Z,3.93
2018-08-16T18:09:06.833Z,4.40
2018-08-16T18:11:35.097Z,6.63
2018-08-16T18:14:03.373Z,5.73
2018-08-16T18:16:31.650Z,4.87
2018-08-16T18:18:59.913Z,3.97
2018-08-16T18:21:28.178Z,4.20
2018-08-16T18:23:56.477Z,7.13
2018-08-16T18:26:24.742Z,5.37
2018-08-16T18:28:53.003Z,5.77
2018-08-16T18:31:21.314Z,5.00
2018-08-16T18:33:49.587Z,7.87
2018-08-16T18:36:17.881Z,6.70
2018-08-16T18:38:46.148Z,9.73
2018-08-16T18:41:14.436Z,8.43
2018-08-16T18:43:42.687Z,8.43
2018-08-16T18:46:10.956Z,10.87
2018-08-16T18:48:39.196Z,5.03
2018-08-16T18:51:07.548Z,6.33
2018-08-16T18:53:35.914Z,6.83
2018-08-16T18:56:04.145Z,5.10
2018-08-16T18:58:32.412Z,7.67
2018-08-16T19:01:00.685Z,6.50
2018-08-16T19:03:28.941Z,8.00
2018-08-16T19:05:57.300Z,6.03
2018-08-16T19:08:25.535Z,6.30
2018-08-16T19:10:53.807Z,11.10
2018-08-16T19:13:22.376Z,6.20
2018-08-16T19:15:50.410Z,7.87
2018-08-16T19:18:18.649Z,5.23
2018-08-16T19:20:46.920Z,10.13
2018-08-16T19:23:15.169Z,8.17
2018-08-16T19:25:43.439Z,6.07
2018-08-16T19:28:11.698Z,5.97
2018-08-16T19:30:39.953Z,5.17
2018-08-16T19:33:08.209Z,6.53
2018-08-16T19:35:36.529Z,8.73
2018-08-16T19:38:04.773Z,6.90
2018-08-16T19:40:33.025Z,7.30
2018-08-16T19:43:01.281Z,5.07
2018-08-16T19:45:29.543Z,6.67
2018-08-16T19:47:57.875Z,8.67
2018-08-16T19:50:26.074Z,6.47
2018-08-16T19:52:54.320Z,5.17
2018-08-16T19:55:22.577Z,5.70
2018-08-16T19:57:50.891Z,6.20
2018-08-16T20:00:19.174Z,7.07
2018-08-16T20:02:47.479Z,39.53
2018-08-16T20:05:15.695Z,44.10
2018-08-16T20:07:43.973Z,61.47
2018-08-16T20:10:12.431Z,43.27
2018-08-16T20:12:40.672Z,17.63
2018-08-16T20:15:09.600Z,11.07
2018-08-16T20:17:37.869Z,8.43
2018-08-16T20:20:06.881Z,6.63
2018-08-16T20:22:35.135Z,7.97
2018-08-16T20:25:03.508Z,7.23
2018-08-16T20:27:31.686Z,7.87
2018-08-16T20:29:59.945Z,7.20
2018-08-16T20:32:28.261Z,9.00
2018-08-16T20:34:56.497Z,8.27
2018-08-16T20:37:24.756Z,5.73
2018-08-16T20:39:53.152Z,7.80
2018-08-16T20:42:21.418Z,6.53
2018-08-16T20:44:49.676Z,6.83
2018-08-16T20:47:17.986Z,6.73
2018-08-16T20:49:46.247Z,7.13
2018-08-16T20:52:14.507Z,8.53
2018-08-16T20:54:42.748Z,8.30
2018-08-16T20:57:11.056Z,6.80
2018-08-16T20:59:39.353Z,4.90
2018-08-16T21:02:07.606Z,5.70
2018-08-16T21:04:35.876Z,6.33
2018-08-16T21:07:04.149Z,4.80
2018-08-16T21:09:32.484Z,7.77
2018-08-16T21:12:00.741Z,6.03
2018-08-16T21:14:29.893Z,4.80
2018-08-16T21:16:58.211Z,4.50
2018-08-16T21:19:26.636Z,5.03
2018-08-16T21:21:54.902Z,7.63
2018-08-16T21:24:23.142Z,4.83
2018-08-16T21:26:51.594Z,5.20
2018-08-16T21:29:19.857Z,4.77
2018-08-16T21:31:48.140Z,4.70
2018-08-16T21:34:16.397Z,5.27
2018-08-16T21:36:44.652Z,5.27
2018-08-16T21:39:13.161Z,6.63
2018-08-16T21:41:41.466Z,5.20
2018-08-16T21:44:10.658Z,6.10
2018-08-16T21:46:38.946Z,5.83
2018-08-16T21:49:07.305Z,5.90
2018-08-16T21:51:35.561Z,5.33
2018-08-16T21:54:03.848Z,5.80
2018-08-16T21:56:32.104Z,6.73
2018-08-16T21:59:00.382Z,8.30
2018-08-16T22:01:28.702Z,6.27
2018-08-16T22:03:56.945Z,7.17
2018-08-16T22:06:36.618Z,5.10
2018-08-16T22:09:06.629Z,5.13
2018-08-16T22:11:34.913Z,5.83
2018-08-16T22:14:03.170Z,4.67
2018-08-16T22:16:31.449Z,4.87
2018-08-16T22:18:59.705Z,4.70
2018-08-16T22:21:27.975Z,4.40
2018-08-16T22:23:56.225Z,5.93
2018-08-16T22:26:24.529Z,5.70
2018-08-16T22:28:52.776Z,4.70
2018-08-16T22:31:21.029Z,9.90
2018-08-16T22:33:49.380Z,5.63
2018-08-16T22:36:17.629Z,5.57
2018-08-16T22:38:45.901Z,4.57
2018-08-16T22:41:14.200Z,5.23
2018-08-16T22:43:42.478Z,4.73
2018-08-16T22:46:10.721Z,7.50
2018-08-16T22:48:38.980Z,8.53
2018-08-16T22:51:07.236Z,5.03
2018-08-16T22:53:35.628Z,4.73
2018-08-16T22:56:03.984Z,6.60
2018-08-16T22:58:32.265Z,4.90
2018-08-16T23:01:00.525Z,5.50
2018-08-16T23:03:28.823Z,5.50
2018-08-16T23:05:57.058Z,4.93
2018-08-16T23:08:25.394Z,6.33
2018-08-16T23:10:53.666Z,7.03
2018-08-16T23:13:21.925Z,8.13
2018-08-16T23:15:50.198Z,7.30
2018-08-16T23:18:18.486Z,8.33
2018-08-16T23:20:46.733Z,5.10
2018-08-16T23:23:15.001Z,5.70
2018-08-16T23:25:43.245Z,5.57
2018-08-16T23:28:11.538Z,5.10
2018-08-16T23:30:39.785Z,5.47
2018-08-16T23:33:08.370Z,6.73
2018-08-16T23:35:36.637Z,6.47
2018-08-16T23:38:04.901Z,5.20
2018-08-16T23:40:33.158Z,5.87
2018-08-16T23:43:01.429Z,7.73
2018-08-16T23:45:29.722Z,5.40
2018-08-16T23:48:09.385Z,5.93
2018-08-16T23:50:37.641Z,4.80
2018-08-16T23:53:06.081Z,4.80
2018-08-16T23:55:34.354Z,6.13
2018-08-16T23:58:02.663Z,6.10
